createdAt,value
2023-03-05T00:02:42.634Z,98100.59
2023-03-05T00:05:27.266Z,98093.84
2023-03-05T00:08:12.043Z,98106.16
2023-03-05T00:11:01.769Z,98098.88
2023-03-05T00:13:47.072Z,98097.47
2023-03-05T00:16:32.117Z,98097.19
2023-03-05T00:19:16.644Z,98106.00
2023-03-05T00:22:01.534Z,98096.41
2023-03-05T00:24:50.414Z,98102.53
2023-03-05T00:27:35.111Z,98101.94
2023-03-05T00:30:19.969Z,98114.66
2023-03-05T00:33:04.979Z,98108.22
2023-03-05T00:35:49.422Z,98103.19
2023-03-05T00:38:35.295Z,98112.47
2023-03-05T00:41:20.577Z,98102.09
2023-03-05T00:44:05.199Z,98106.69
2023-03-05T00:46:49.930Z,98102.75
2023-03-05T00:49:35.016Z,98112.16
2023-03-05T00:52:19.797Z,98107.28
2023-03-05T00:55:04.746Z,98109.91
2023-03-05T00:57:49.459Z,98116.81
2023-03-05T01:00:34.311Z,98113.50
2023-03-05T01:03:19.243Z,98116.91
2023-03-05T01:06:10.238Z,98124.31
2023-03-05T01:08:56.453Z,98119.25
2023-03-05T01:11:41.672Z,98115.63
2023-03-05T01:14:27.708Z,98114.81
2023-03-05T01:17:12.660Z,98124.25
2023-03-05T01:19:57.586Z,98109.28
2023-03-05T01:22:42.560Z,98113.72
2023-03-05T01:25:27.639Z,98117.16
2023-03-05T01:28:12.804Z,98119.53
2023-03-05T01:30:57.952Z,98118.75
2023-03-05T01:33:42.358Z,98108.22
2023-03-05T01:36:27.471Z,98124.72
2023-03-05T01:39:12.853Z,98128.34
2023-03-05T01:41:57.998Z,98129.00
2023-03-05T01:45:06.596Z,98122.56
2023-03-05T01:47:51.485Z,98130.13
2023-03-05T01:50:36.267Z,98122.09
2023-03-05T01:53:21.128Z,98120.69
2023-03-05T01:56:06.260Z,98126.97
2023-03-05T01:58:53.136Z,98128.28
2023-03-05T02:01:42.264Z,98128.78
2023-03-05T02:04:33.751Z,98132.72
2023-03-05T02:07:18.746Z,98135.56
2023-03-05T02:10:25.141Z,98133.22
2023-03-05T02:13:13.788Z,98137.19
2023-03-05T02:16:00.847Z,98141.25
2023-03-05T02:18:45.687Z,98142.84
2023-03-05T02:21:42.213Z,98137.84
2023-03-05T02:24:36.538Z,98140.84
2023-03-05T02:27:34.009Z,98143.97
2023-03-05T02:30:19.690Z,98136.44
2023-03-05T02:33:05.301Z,98137.72
2023-03-05T02:35:50.462Z,98141.16
2023-03-05T02:38:35.596Z,98135.84
2023-03-05T02:41:20.371Z,98146.19
2023-03-05T02:44:05.800Z,98152.94
2023-03-05T02:46:50.897Z,98147.00
2023-03-05T02:49:36.842Z,98141.97
2023-03-05T02:52:22.724Z,98144.97
2023-03-05T02:55:08.914Z,98145.28
2023-03-05T02:57:54.039Z,98147.31
2023-03-05T03:05:26.552Z,98147.16
2023-03-05T03:08:11.397Z,98157.38
2023-03-05T03:10:56.523Z,98153.56
2023-03-05T03:13:41.872Z,98152.00
2023-03-05T03:16:26.862Z,98153.25
2023-03-05T03:19:11.934Z,98156.06
2023-03-05T03:21:56.726Z,98157.03
2023-03-05T03:24:42.614Z,98159.97
2023-03-05T03:27:27.737Z,98157.78
2023-03-05T03:30:13.561Z,98157.00
2023-03-05T03:32:58.281Z,98164.38
2023-03-05T03:35:43.128Z,98158.84
2023-03-05T03:38:27.712Z,98158.72
2023-03-05T03:41:12.272Z,98159.63
2023-03-05T03:43:57.167Z,98158.84
2023-03-05T03:46:41.743Z,98168.75
2023-03-05T03:49:27.089Z,98168.25
2023-03-05T03:52:11.717Z,98165.28
2023-03-05T03:55:00.793Z,98156.47
2023-03-05T03:57:45.655Z,98157.84
2023-03-05T04:00:30.140Z,98157.09
2023-03-05T04:03:14.909Z,98155.81
2023-03-05T04:05:59.662Z,98150.00
2023-03-05T04:08:44.445Z,98145.47
2023-03-05T04:11:29.573Z,98154.38
2023-03-05T04:14:14.653Z,98145.75
2023-03-05T04:16:59.636Z,98145.44
2023-03-05T04:19:44.787Z,98150.44
2023-03-05T04:22:29.788Z,98154.06
2023-03-05T04:25:14.675Z,98156.72
2023-03-05T04:27:59.962Z,98148.69
2023-03-05T04:30:44.638Z,98151.50
2023-03-05T04:33:30.546Z,98160.91
2023-03-05T04:36:15.490Z,98158.88
2023-03-05T04:39:00.419Z,98154.19
2023-03-05T04:41:44.982Z,98151.81
2023-03-05T04:44:29.536Z,98155.91
2023-03-05T04:47:15.191Z,98161.22
2023-03-05T04:50:00.228Z,98163.22
2023-03-05T04:52:45.306Z,98176.44
2023-03-05T04:55:30.358Z,98169.66
2023-03-05T04:58:15.289Z,98166.25
2023-03-05T05:01:02.168Z,98172.69
2023-03-05T05:03:47.572Z,98162.81
2023-03-05T05:06:32.173Z,98163.91
2023-03-05T05:09:17.571Z,98169.59
2023-03-05T05:12:02.213Z,98173.22
2023-03-05T05:14:47.128Z,98177.50
2023-03-05T05:17:32.449Z,98183.63
2023-03-05T05:20:17.234Z,98182.88
2023-03-05T05:23:01.989Z,98188.03
2023-03-05T05:25:55.950Z,98187.09
2023-03-05T05:28:43.149Z,98192.28
2023-03-05T05:31:27.940Z,98201.22
2023-03-05T05:34:12.481Z,98194.22
2023-03-05T05:36:57.486Z,98186.22
2023-03-05T05:39:42.495Z,98193.00
2023-03-05T05:42:28.818Z,98205.91
2023-03-05T05:45:13.945Z,98197.13
2023-03-05T05:47:58.403Z,98204.34
2023-03-05T05:50:43.543Z,98199.31
2023-03-05T05:53:28.106Z,98203.72
2023-03-05T05:56:14.102Z,98202.47
2023-03-05T05:58:59.227Z,98196.00
2023-03-05T06:01:44.183Z,98198.03
2023-03-05T06:04:29.605Z,98206.53
2023-03-05T06:07:13.945Z,98222.38
2023-03-05T06:09:58.973Z,98209.16
2023-03-05T06:12:44.330Z,98214.19
2023-03-05T06:15:29.359Z,98213.09
2023-03-05T06:18:14.157Z,98205.00
2023-03-05T06:21:05.150Z,98218.66
2023-03-05T06:23:50.721Z,98219.41
2023-03-05T06:26:35.444Z,98218.41
2023-03-05T06:29:20.348Z,98219.47
2023-03-05T06:32:05.275Z,98219.31
2023-03-05T06:34:50.110Z,98224.06
2023-03-05T06:37:34.850Z,98228.81
2023-03-05T06:40:19.899Z,98227.22
2023-03-05T06:43:04.766Z,98232.91
2023-03-05T06:45:49.439Z,98231.94
2023-03-05T06:48:34.744Z,98235.56
2023-03-05T06:51:25.684Z,98232.28
2023-03-05T06:54:13.705Z,98234.28
2023-03-05T06:56:58.659Z,98239.84
2023-03-05T06:59:43.832Z,98239.28
2023-03-05T07:02:28.708Z,98230.78
2023-03-05T07:05:13.612Z,98225.50
2023-03-05T07:07:58.239Z,98231.63
2023-03-05T07:10:43.757Z,98230.53
2023-03-05T07:13:29.035Z,98234.59
2023-03-05T07:16:20.200Z,98232.94
2023-03-05T07:19:06.889Z,98230.88
2023-03-05T07:21:51.938Z,98228.41
2023-03-05T07:24:37.018Z,98234.09
2023-03-05T07:27:24.824Z,98220.75
2023-03-05T07:30:10.310Z,98235.44
2023-03-05T07:32:55.052Z,98234.88
2023-03-05T07:35:40.828Z,98223.22
2023-03-05T07:38:25.941Z,98228.97
2023-03-05T07:41:12.811Z,98232.03
2023-03-05T07:43:57.604Z,98225.94
2023-03-05T07:46:43.265Z,98222.28
2023-03-05T07:49:28.213Z,98223.59
2023-03-05T07:52:13.070Z,98222.44
2023-03-05T07:54:58.216Z,98224.03
2023-03-05T07:57:42.825Z,98213.22
2023-03-05T08:00:27.897Z,98228.16
2023-03-05T08:03:12.390Z,98222.28
2023-03-05T08:05:57.241Z,98226.94
2023-03-05T08:08:42.068Z,98223.25
2023-03-05T08:11:28.142Z,98219.19
2023-03-05T08:14:12.901Z,98213.97
2023-03-05T08:16:57.654Z,98234.31
2023-03-05T08:19:42.345Z,98220.75
2023-03-05T08:22:26.894Z,98225.09
2023-03-05T08:25:12.646Z,98214.47
2023-03-05T08:27:57.587Z,98204.03
2023-03-05T08:30:42.357Z,98221.16
2023-03-05T08:33:27.027Z,98214.09
2023-03-05T08:36:12.577Z,98213.19
2023-03-05T08:38:59.003Z,98219.97
2023-03-05T08:41:43.965Z,98223.09
2023-03-05T08:44:29.210Z,98216.44
2023-03-05T08:47:13.767Z,98227.78
2023-03-05T08:49:58.719Z,98241.31
2023-03-05T08:52:44.005Z,98233.81
2023-03-05T08:55:28.610Z,98221.44
2023-03-05T08:58:14.096Z,98228.28
2023-03-05T09:00:58.788Z,98231.38
2023-03-05T09:03:43.866Z,98237.06
2023-03-05T09:06:29.012Z,98230.94
2023-03-05T09:09:13.635Z,98244.66
2023-03-05T09:11:59.517Z,98235.19
2023-03-05T09:14:44.244Z,98237.72
2023-03-05T09:17:29.298Z,98238.72
2023-03-05T09:20:16.550Z,98236.03
2023-03-05T09:23:01.616Z,98243.09
2023-03-05T09:25:46.615Z,98237.00
2023-03-05T09:28:31.200Z,98231.19
2023-03-05T09:31:15.923Z,98218.78
2023-03-05T09:34:00.591Z,98233.97
2023-03-05T09:36:45.290Z,98230.56
2023-03-05T09:39:29.857Z,98234.91
2023-03-05T09:42:36.102Z,98234.84
2023-03-05T09:45:38.932Z,98231.81
2023-03-05T09:48:46.047Z,98228.13
2023-03-05T09:51:35.876Z,98215.81
2023-03-05T09:54:40.689Z,98216.97
2023-03-05T09:57:38.860Z,98212.25
2023-03-05T10:00:40.913Z,98207.78
2023-03-05T10:03:31.625Z,98218.19
2023-03-05T10:06:26.029Z,98215.16
2023-03-05T10:09:10.710Z,98207.19
2023-03-05T10:11:55.401Z,98191.28
2023-03-05T10:14:41.267Z,98190.72
2023-03-05T10:17:38.262Z,98195.63
2023-03-05T10:20:48.477Z,98190.41
2023-03-05T10:24:03.216Z,98190.41
2023-03-05T10:27:20.764Z,98191.38
2023-03-05T10:30:37.823Z,98188.38
2023-03-05T10:33:35.564Z,98174.00
2023-03-05T10:36:46.149Z,98183.81
2023-03-05T10:40:09.350Z,98175.41
2023-03-05T10:42:53.886Z,98174.94
2023-03-05T10:45:51.540Z,98180.19
2023-03-05T10:48:38.441Z,98171.13
2023-03-05T10:51:53.980Z,98171.00
2023-03-05T10:54:42.082Z,98174.44
2023-03-05T10:57:31.102Z,98175.88
2023-03-05T11:00:25.380Z,98160.22
2023-03-05T11:03:10.160Z,98168.22
2023-03-05T11:06:00.982Z,98157.22
2023-03-05T11:08:46.323Z,98150.25
2023-03-05T11:11:32.571Z,98148.31
2023-03-05T11:14:30.455Z,98149.59
2023-03-05T11:17:31.746Z,98140.72
2023-03-05T11:20:28.534Z,98150.56
2023-03-05T11:23:13.516Z,98160.91
2023-03-05T11:26:04.514Z,98149.34
2023-03-05T11:28:52.515Z,98150.00
2023-03-05T11:31:37.673Z,98134.59
2023-03-05T11:34:29.573Z,98151.69
2023-03-05T11:37:30.080Z,98132.59
2023-03-05T11:40:22.289Z,98121.28
2023-03-05T11:43:16.349Z,98125.75
2023-03-05T11:46:02.688Z,98131.59
2023-03-05T11:48:47.858Z,98114.69
2023-03-05T11:51:42.936Z,98117.38
2023-03-05T11:54:38.470Z,98114.66
2023-03-05T11:57:25.347Z,98103.25
2023-03-05T12:00:16.982Z,98112.50
2023-03-05T12:03:13.677Z,98124.56
2023-03-05T12:06:08.497Z,98106.25
2023-03-05T12:08:59.756Z,98106.00
2023-03-05T12:11:46.623Z,98108.97
2023-03-05T12:15:00.691Z,98102.47
2023-03-05T12:17:45.250Z,98106.94
2023-03-05T12:20:46.628Z,98101.38
2023-03-05T12:23:45.575Z,98102.91
2023-03-05T12:26:52.022Z,98088.72
2023-03-05T12:29:42.912Z,98105.44
2023-03-05T12:32:34.592Z,98092.88
2023-03-05T12:35:22.980Z,98089.38
2023-03-05T12:38:28.561Z,98088.81
2023-03-05T12:41:22.985Z,98088.81
2023-03-05T12:44:08.039Z,98073.41
2023-03-05T12:47:10.966Z,98071.28
2023-03-05T12:49:56.635Z,98062.13
2023-03-05T12:52:45.244Z,98077.72
2023-03-05T12:56:24.141Z,98064.03
2023-03-05T12:59:09.726Z,98066.19
2023-03-05T13:01:58.286Z,98062.03
2023-03-05T13:04:45.435Z,98068.22
2023-03-05T13:07:30.540Z,98053.34
2023-03-05T13:10:23.889Z,98063.72
2023-03-05T13:13:14.700Z,98057.94
2023-03-05T13:16:00.665Z,98051.81
2023-03-05T13:18:48.312Z,98056.91
2023-03-05T13:21:34.676Z,98052.34
2023-03-05T13:24:19.783Z,98060.69
2023-03-05T13:27:20.017Z,98051.06
2023-03-05T13:30:05.998Z,98047.72
2023-03-05T13:32:54.894Z,98044.84
2023-03-05T13:35:45.025Z,98043.22
2023-03-05T13:38:40.945Z,98039.34
2023-03-05T13:41:27.483Z,98047.13
2023-03-05T13:44:21.288Z,98034.09
2023-03-05T13:47:18.992Z,98031.81
2023-03-05T13:50:09.106Z,98045.91
2023-03-05T13:52:54.216Z,98028.81
2023-03-05T13:55:39.224Z,98037.78
2023-03-05T13:58:44.051Z,98036.94
2023-03-05T14:01:43.678Z,98037.13
2023-03-05T14:04:42.428Z,98037.53
2023-03-05T14:07:41.959Z,98038.47
2023-03-05T14:10:34.001Z,98043.91
2023-03-05T14:13:23.222Z,98039.97
2023-03-05T14:16:13.608Z,98056.47
2023-03-05T14:19:00.991Z,98044.03
2023-03-05T14:21:50.208Z,98043.66
2023-03-05T14:24:36.430Z,98031.63
2023-03-05T14:27:21.825Z,98043.34
2023-03-05T14:30:16.630Z,98060.28
2023-03-05T14:33:02.430Z,98057.88
2023-03-05T14:35:50.967Z,98040.31
2023-03-05T14:38:40.001Z,98055.34
2023-03-05T14:41:39.372Z,98044.25
2023-03-05T14:44:25.700Z,98061.00
2023-03-05T14:47:10.716Z,98041.69
2023-03-05T14:49:55.460Z,98052.63
2023-03-05T14:52:40.182Z,98044.22
2023-03-05T14:55:29.661Z,98042.28
2023-03-05T14:58:17.762Z,98026.13
2023-03-05T15:01:02.475Z,98024.97
2023-03-05T15:03:47.269Z,98024.78
2023-03-05T15:06:38.783Z,98010.53
2023-03-05T15:09:23.545Z,98018.53
2023-03-05T15:12:11.549Z,98020.09
2023-03-05T15:14:56.668Z,98018.28
2023-03-05T15:17:46.608Z,98025.53
2023-03-05T15:20:32.446Z,98030.34
2023-03-05T15:23:17.725Z,98027.97
2023-03-05T15:26:05.611Z,98028.50
2023-03-05T15:28:50.634Z,98036.47
2023-03-05T15:31:38.124Z,98030.56
2023-03-05T15:34:23.161Z,98043.22
2023-03-05T15:37:08.778Z,98035.00
2023-03-05T15:39:53.535Z,98040.63
2023-03-05T15:42:38.583Z,98043.72
2023-03-05T15:45:23.852Z,98035.28
2023-03-05T15:48:09.605Z,98039.97
2023-03-05T15:50:54.616Z,98035.22
2023-03-05T15:53:39.086Z,98033.59
2023-03-05T15:56:23.798Z,98035.69
2023-03-05T15:59:09.570Z,98034.50
2023-03-05T16:01:54.145Z,98037.88
2023-03-05T16:04:39.629Z,98039.22
2023-03-05T16:07:25.137Z,98040.50
2023-03-05T16:10:13.219Z,98038.50
2023-03-05T16:13:14.011Z,98044.34
2023-03-05T16:15:58.897Z,98046.03
2023-03-05T16:18:47.168Z,98045.97
2023-03-05T16:21:31.943Z,98045.13
2023-03-05T16:24:16.977Z,98036.09
2023-03-05T16:27:01.556Z,98044.06
2023-03-05T16:29:46.749Z,98049.28
2023-03-05T16:32:32.051Z,98054.69
2023-03-05T16:35:17.006Z,98035.44
2023-03-05T16:38:02.465Z,98045.59
2023-03-05T16:43:56.045Z,98046.81
2023-03-05T16:46:42.709Z,98048.09
2023-03-05T16:49:28.034Z,98047.75
2023-03-05T16:52:18.723Z,98048.19
2023-03-05T16:55:05.294Z,98043.84
2023-03-05T16:57:50.062Z,98046.66
2023-03-05T17:00:35.400Z,98042.66
2023-03-05T17:03:20.018Z,98037.97
2023-03-05T17:06:13.902Z,98035.44
2023-03-05T17:08:59.474Z,98036.84
2023-03-05T17:11:44.482Z,98027.09
2023-03-05T17:14:29.003Z,98037.09
2023-03-05T17:17:14.398Z,98034.41
2023-03-05T17:19:59.384Z,98023.94
2023-03-05T17:22:44.424Z,98014.56
2023-03-05T17:25:30.105Z,98028.75
2023-03-05T17:28:15.113Z,98016.91
2023-03-05T17:31:00.701Z,98023.34
2023-03-05T17:33:45.540Z,98019.09
2023-03-05T17:36:31.750Z,98016.38
2023-03-05T17:39:18.385Z,98014.19
2023-03-05T17:42:03.128Z,98009.59
2023-03-05T17:47:34.926Z,98012.09
2023-03-05T17:50:19.621Z,98018.28
2023-03-05T17:53:04.931Z,98006.28
2023-03-05T17:55:49.817Z,98008.44
2023-03-05T17:58:34.647Z,98004.97
2023-03-05T18:01:25.630Z,98003.22
2023-03-05T18:04:10.940Z,98000.28
2023-03-05T18:06:55.640Z,97999.66
2023-03-05T18:09:40.189Z,97999.66
2023-03-05T18:12:24.714Z,98001.56
2023-03-05T18:15:12.591Z,97997.66
2023-03-05T18:17:58.317Z,98005.59
2023-03-05T18:20:43.795Z,98006.13
2023-03-05T18:23:28.413Z,98003.34
2023-03-05T18:26:13.299Z,98004.47
2023-03-05T18:28:57.660Z,98005.88
2023-03-05T18:31:42.216Z,98003.09
2023-03-05T18:34:27.460Z,98007.06
2023-03-05T18:37:12.113Z,98003.81
2023-03-05T18:39:57.331Z,98001.78
2023-03-05T18:42:42.238Z,97996.38
2023-03-05T18:45:27.807Z,98000.34
2023-03-05T18:48:12.806Z,97991.81
2023-03-05T18:50:57.891Z,97994.78
2023-03-05T18:53:42.763Z,97990.91
2023-03-05T18:56:27.282Z,97990.91
2023-03-05T18:59:12.220Z,97996.56
2023-03-05T19:01:56.731Z,97995.38
2023-03-05T19:04:42.003Z,97990.75
2023-03-05T19:07:26.809Z,97990.56
2023-03-05T19:10:13.701Z,97989.22
2023-03-05T19:13:42.794Z,97990.59
2023-03-05T19:16:33.054Z,97991.22
2023-03-05T19:19:21.614Z,97981.13
2023-03-05T19:22:06.737Z,97984.41
2023-03-05T19:24:53.379Z,97986.75
2023-03-05T19:27:39.035Z,97987.34
2023-03-05T19:30:24.197Z,97979.41
2023-03-05T19:33:08.868Z,97979.22
2023-03-05T19:35:53.827Z,97982.19
2023-03-05T19:38:39.000Z,97980.59
2023-03-05T19:41:25.585Z,97975.75
2023-03-05T19:44:12.214Z,97985.50
2023-03-05T19:46:57.133Z,97982.97
2023-03-05T19:49:41.496Z,97985.28
2023-03-05T19:52:27.207Z,97968.59
2023-03-05T19:55:12.468Z,97982.78
2023-03-05T19:57:57.013Z,97971.69
2023-03-05T20:00:41.602Z,97974.22
2023-03-05T20:03:26.342Z,97979.88
2023-03-05T20:06:11.004Z,97976.22
2023-03-05T20:08:57.303Z,97971.75
2023-03-05T20:11:41.961Z,97960.09
2023-03-05T20:14:27.024Z,97964.53
2023-03-05T20:17:11.613Z,97963.00
2023-03-05T20:19:58.332Z,97960.91
2023-03-05T20:22:45.029Z,97963.50
2023-03-05T20:25:29.993Z,97963.31
2023-03-05T20:28:14.952Z,97957.88
2023-03-05T20:31:00.319Z,97956.53
2023-03-05T20:33:45.146Z,97951.06
2023-03-05T20:36:29.903Z,97956.72
2023-03-05T20:39:14.999Z,97947.78
2023-03-05T20:42:00.203Z,97943.53
2023-03-05T20:44:44.914Z,97945.09
2023-03-05T20:47:45.546Z,97943.34
2023-03-05T20:50:30.151Z,97942.97
2023-03-05T20:53:15.785Z,97934.00
2023-03-05T20:56:00.571Z,97933.41
2023-03-05T20:58:45.637Z,97931.66
2023-03-05T21:01:30.934Z,97934.19
2023-03-05T21:04:15.805Z,97924.03
2023-03-05T21:07:00.587Z,97923.78
2023-03-05T21:09:45.687Z,97922.63
2023-03-05T21:12:33.454Z,97921.09
2023-03-05T21:15:21.033Z,97921.47
2023-03-05T21:18:05.963Z,97922.06
2023-03-05T21:20:50.705Z,97916.22
2023-03-05T21:23:35.591Z,97921.69
2023-03-05T21:26:20.613Z,97920.53
2023-03-05T21:29:05.469Z,97915.47
2023-03-05T21:31:50.335Z,97906.31
2023-03-05T21:34:35.007Z,97917.59
2023-03-05T21:37:19.802Z,97912.94
2023-03-05T21:40:05.120Z,97915.59
2023-03-05T21:42:49.971Z,97917.09
2023-03-05T21:45:34.760Z,97916.50
2023-03-05T21:48:20.489Z,97922.72
2023-03-05T21:51:38.002Z,97919.56
2023-03-05T21:54:28.021Z,97910.03
2023-03-05T21:57:13.494Z,97905.75
2023-03-05T21:59:58.458Z,97907.13
2023-03-05T22:02:43.446Z,97900.50
2023-03-05T22:05:28.276Z,97908.28
2023-03-05T22:08:12.836Z,97906.72
2023-03-05T22:10:57.339Z,97904.94
2023-03-05T22:13:42.292Z,97901.19
2023-03-05T22:16:27.583Z,97897.25
2023-03-05T22:19:12.122Z,97903.19
2023-03-05T22:21:56.973Z,97901.41
2023-03-05T22:24:41.584Z,97896.53
2023-03-05T22:27:26.185Z,97892.03
2023-03-05T22:30:12.498Z,97895.50
2023-03-05T22:32:58.153Z,97888.13
2023-03-05T22:35:43.556Z,97896.13
2023-03-05T22:38:28.807Z,97890.28
2023-03-05T22:41:16.037Z,97889.69
2023-03-05T22:44:01.053Z,97884.22
2023-03-05T22:46:45.962Z,97878.56
2023-03-05T22:49:31.582Z,97876.56
2023-03-05T22:52:16.763Z,97870.34
2023-03-05T22:55:02.768Z,97872.66
2023-03-05T22:57:47.898Z,97871.91
2023-03-05T23:00:32.468Z,97864.13
2023-03-05T23:03:17.140Z,97853.25
2023-03-05T23:06:02.175Z,97861.25
2023-03-05T23:08:47.100Z,97860.91
2023-03-05T23:11:31.724Z,97862.44
2023-03-05T23:14:16.582Z,97860.91
2023-03-05T23:17:01.303Z,97860.91
2023-03-05T23:19:46.271Z,97854.63
2023-03-05T23:22:30.831Z,97863.59
2023-03-05T23:25:15.974Z,97864.56
2023-03-05T23:28:03.112Z,97859.09
2023-03-05T23:30:48.206Z,97860.03
2023-03-05T23:33:33.156Z,97859.63
2023-03-05T23:36:19.311Z,97857.91
2023-03-05T23:39:04.055Z,97858.06
2023-03-05T23:41:48.640Z,97856.13
2023-03-05T23:44:33.481Z,97856.75
2023-03-05T23:47:18.169Z,97841.78
2023-03-05T23:50:05.496Z,97846.81
2023-03-05T23:52:50.875Z,97851.50
2023-03-05T23:55:40.560Z,97853.09
2023-03-05T23:58:25.871Z,97845.69
